Main page
METAR-TAF:

METAR-TAF

Airports :

Padua, Italy

Padua Airport

latitude: 45-23-45N, longitude: 11-50-53E, elevation: 13 m

Current weather observation

The report was made 2 hours and 49 minutes ago, at 06:59 UTC
Wind 2 kt from variable directions
Temperature 0°C
Humidity 100%
Pressure 1020 hPa
Visibility 10 km or more
no clouds below 1500 m and no cumulonimbus

METAR: LIPU 230659Z VRB02KT CAVOK 00/00 Q1020

Time: 10:48 (09:48 UTC)


TAF: missing

Weather observations and forecasts of more than 4000 airports (METAR and TAF reports).

The available stations are represented by yellow and red dots on the map.

Hover mouse over dot to see the name of the station.

Then click to see weather observations and forecasts.

To change the map : click on the green buttons with a black cross to zoom in, on the green button with a dash to zoom out, or on the green arrows for adjacent maps.


METAR-TAF: